sensor_id;sensor_type;location;lat;lon;timestamp;temperature;humidity
26707;DHT22;14319;49.422;10.934;2022-11-23T00:00:20;5.30;86.00
26707;DHT22;14319;49.422;10.934;2022-11-23T00:02:21;5.30;85.90
26707;DHT22;14319;49.422;10.934;2022-11-23T00:04:21;5.20;86.30
26707;DHT22;14319;49.422;10.934;2022-11-23T00:06:24;5.20;86.50
26707;DHT22;14319;49.422;10.934;2022-11-23T00:08:25;5.20;86.60
26707;DHT22;14319;49.422;10.934;2022-11-23T00:10:25;5.10;86.20
26707;DHT22;14319;49.422;10.934;2022-11-23T00:12:26;5.10;86.80
26707;DHT22;14319;49.422;10.934;2022-11-23T00:14:26;5.20;86.90
26707;DHT22;14319;49.422;10.934;2022-11-23T00:16:27;5.10;86.40
26707;DHT22;14319;49.422;10.934;2022-11-23T00:18:28;5.10;87.10
26707;DHT22;14319;49.422;10.934;2022-11-23T00:20:29;5.10;87.00
26707;DHT22;14319;49.422;10.934;2022-11-23T00:22:29;5.10;87.00
26707;DHT22;14319;49.422;10.934;2022-11-23T00:24:30;5.10;86.10
26707;DHT22;14319;49.422;10.934;2022-11-23T00:26:33;4.90;86.30
26707;DHT22;14319;49.422;10.934;2022-11-23T00:28:33;4.90;85.70
26707;DHT22;14319;49.422;10.934;2022-11-23T00:30:37;4.90;86.20
26707;DHT22;14319;49.422;10.934;2022-11-23T00:32:39;4.90;85.60
26707;DHT22;14319;49.422;10.934;2022-11-23T00:34:40;4.70;86.30
26707;DHT22;14319;49.422;10.934;2022-11-23T00:36:41;4.40;86.60
26707;DHT22;14319;49.422;10.934;2022-11-23T00:38:42;4.40;88.00
26707;DHT22;14319;49.422;10.934;2022-11-23T00:40:43;4.50;88.00
26707;DHT22;14319;49.422;10.934;2022-11-23T00:42:43;4.60;88.00
26707;DHT22;14319;49.422;10.934;2022-11-23T00:44:44;4.70;87.10
26707;DHT22;14319;49.422;10.934;2022-11-23T00:46:44;4.60;86.90
26707;DHT22;14319;49.422;10.934;2022-11-23T00:48:45;4.60;86.10
26707;DHT22;14319;49.422;10.934;2022-11-23T00:50:46;4.60;86.80
26707;DHT22;14319;49.422;10.934;2022-11-23T00:52:47;4.60;86.70
26707;DHT22;14319;49.422;10.934;2022-11-23T00:54:47;4.60;86.50
26707;DHT22;14319;49.422;10.934;2022-11-23T00:56:48;4.60;86.60
26707;DHT22;14319;49.422;10.934;2022-11-23T00:58:49;4.40;86.20
26707;DHT22;14319;49.422;10.934;2022-11-23T01:00:58;4.40;87.10
26707;DHT22;14319;49.422;10.934;2022-11-23T01:02:59;4.30;86.90
26707;DHT22;14319;49.422;10.934;2022-11-23T01:05:03;4.20;86.70
26707;DHT22;14319;49.422;10.934;2022-11-23T01:07:04;4.20;87.00
26707;DHT22;14319;49.422;10.934;2022-11-23T01:11:07;4.20;87.10
26707;DHT22;14319;49.422;10.934;2022-11-23T01:13:09;4.10;86.70
26707;DHT22;14319;49.422;10.934;2022-11-23T01:15:11;4.10;87.20
26707;DHT22;14319;49.422;10.934;2022-11-23T01:17:11;4.10;86.20
26707;DHT22;14319;49.422;10.934;2022-11-23T01:19:13;3.90;86.60
26707;DHT22;14319;49.422;10.934;2022-11-23T01:21:13;3.90;87.30
26707;DHT22;14319;49.422;10.934;2022-11-23T01:23:14;3.80;86.30
26707;DHT22;14319;49.422;10.934;2022-11-23T01:25:15;3.80;87.10
26707;DHT22;14319;49.422;10.934;2022-11-23T01:27:16;3.80;88.10
26707;DHT22;14319;49.422;10.934;2022-11-23T01:29:16;3.80;87.10
26707;DHT22;14319;49.422;10.934;2022-11-23T01:31:18;3.80;87.90
26707;DHT22;14319;49.422;10.934;2022-11-23T01:33:19;3.90;87.10
26707;DHT22;14319;49.422;10.934;2022-11-23T01:35:20;3.90;87.20
26707;DHT22;14319;49.422;10.934;2022-11-23T01:37:21;4.00;86.50
26707;DHT22;14319;49.422;10.934;2022-11-23T01:39:21;3.90;86.20
26707;DHT22;14319;49.422;10.934;2022-11-23T01:41:24;3.90;86.50
26707;DHT22;14319;49.422;10.934;2022-11-23T01:43:24;3.90;86.70
26707;DHT22;14319;49.422;10.934;2022-11-23T01:45:36;3.80;86.80
26707;DHT22;14319;49.422;10.934;2022-11-23T01:47:37;3.70;86.60
26707;DHT22;14319;49.422;10.934;2022-11-23T01:49:39;3.70;86.60
26707;DHT22;14319;49.422;10.934;2022-11-23T01:51:43;3.80;87.50
26707;DHT22;14319;49.422;10.934;2022-11-23T01:53:45;3.80;86.50
26707;DHT22;14319;49.422;10.934;2022-11-23T01:55:50;3.70;86.20
26707;DHT22;14319;49.422;10.934;2022-11-23T01:57:51;3.70;86.50
26707;DHT22;14319;49.422;10.934;2022-11-23T01:59:51;3.70;87.10
26707;DHT22;14319;49.422;10.934;2022-11-23T02:01:52;3.70;86.40
26707;DHT22;14319;49.422;10.934;2022-11-23T02:03:53;3.70;86.40
26707;DHT22;14319;49.422;10.934;2022-11-23T02:05:56;3.90;87.40
26707;DHT22;14319;49.422;10.934;2022-11-23T02:08:00;3.80;86.40
26707;DHT22;14319;49.422;10.934;2022-11-23T02:10:00;3.80;85.70
26707;DHT22;14319;49.422;10.934;2022-11-23T02:12:01;3.70;85.90
26707;DHT22;14319;49.422;10.934;2022-11-23T02:14:02;3.50;86.40
26707;DHT22;14319;49.422;10.934;2022-11-23T02:16:03;3.50;87.30
26707;DHT22;14319;49.422;10.934;2022-11-23T02:18:05;3.50;86.80
26707;DHT22;14319;49.422;10.934;2022-11-23T02:20:08;3.40;87.60
26707;DHT22;14319;49.422;10.934;2022-11-23T02:22:11;3.40;87.30
26707;DHT22;14319;49.422;10.934;2022-11-23T02:24:16;3.40;87.40
26707;DHT22;14319;49.422;10.934;2022-11-23T02:26:21;3.40;87.30
26707;DHT22;14319;49.422;10.934;2022-11-23T02:28:24;3.40;87.20
26707;DHT22;14319;49.422;10.934;2022-11-23T02:30:25;3.40;87.60
26707;DHT22;14319;49.422;10.934;2022-11-23T02:32:27;3.50;88.10
26707;DHT22;14319;49.422;10.934;2022-11-23T02:34:29;3.50;87.60
26707;DHT22;14319;49.422;10.934;2022-11-23T02:36:34;3.60;88.10
26707;DHT22;14319;49.422;10.934;2022-11-23T02:38:38;3.70;88.40
26707;DHT22;14319;49.422;10.934;2022-11-23T02:40:39;3.80;88.00
26707;DHT22;14319;49.422;10.934;2022-11-23T02:42:39;3.80;87.50
26707;DHT22;14319;49.422;10.934;2022-11-23T02:44:45;3.70;87.30
26707;DHT22;14319;49.422;10.934;2022-11-23T02:46:48;3.60;87.40
26707;DHT22;14319;49.422;10.934;2022-11-23T02:48:49;3.60;87.40
26707;DHT22;14319;49.422;10.934;2022-11-23T02:50:50;3.40;87.80
26707;DHT22;14319;49.422;10.934;2022-11-23T02:52:50;3.40;89.30
26707;DHT22;14319;49.422;10.934;2022-11-23T02:54:51;3.50;89.00
26707;DHT22;14319;49.422;10.934;2022-11-23T02:56:52;3.70;88.40
26707;DHT22;14319;49.422;10.934;2022-11-23T02:58:52;3.80;87.60
26707;DHT22;14319;49.422;10.934;2022-11-23T03:00:53;3.80;87.20
26707;DHT22;14319;49.422;10.934;2022-11-23T03:02:54;3.90;87.00
26707;DHT22;14319;49.422;10.934;2022-11-23T03:04:54;3.80;86.50
26707;DHT22;14319;49.422;10.934;2022-11-23T03:06:55;3.90;86.70
26707;DHT22;14319;49.422;10.934;2022-11-23T03:08:56;3.90;87.30
26707;DHT22;14319;49.422;10.934;2022-11-23T03:10:56;3.70;86.00
26707;DHT22;14319;49.422;10.934;2022-11-23T03:12:59;3.70;86.90
26707;DHT22;14319;49.422;10.934;2022-11-23T03:15:02;3.70;87.50
26707;DHT22;14319;49.422;10.934;2022-11-23T03:17:04;3.70;86.70
26707;DHT22;14319;49.422;10.934;2022-11-23T03:19:10;3.60;86.20
26707;DHT22;14319;49.422;10.934;2022-11-23T03:21:11;3.70;87.70
26707;DHT22;14319;49.422;10.934;2022-11-23T03:23:12;3.60;86.90
26707;DHT22;14319;49.422;10.934;2022-11-23T03:25:14;3.60;87.20
26707;DHT22;14319;49.422;10.934;2022-11-23T03:27:16;3.50;86.90
26707;DHT22;14319;49.422;10.934;2022-11-23T03:29:17;3.40;87.30
26707;DHT22;14319;49.422;10.934;2022-11-23T03:31:18;3.40;88.10
26707;DHT22;14319;49.422;10.934;2022-11-23T03:33:18;3.30;88.50
26707;DHT22;14319;49.422;10.934;2022-11-23T03:35:21;3.30;89.00
26707;DHT22;14319;49.422;10.934;2022-11-23T03:37:40;3.40;89.20
26707;DHT22;14319;49.422;10.934;2022-11-23T03:39:41;3.40;88.70
26707;DHT22;14319;49.422;10.934;2022-11-23T03:42:01;3.40;88.60
26707;DHT22;14319;49.422;10.934;2022-11-23T03:44:06;3.40;88.50
26707;DHT22;14319;49.422;10.934;2022-11-23T03:46:09;3.50;88.90
26707;DHT22;14319;49.422;10.934;2022-11-23T03:48:10;3.40;88.40
26707;DHT22;14319;49.422;10.934;2022-11-23T03:50:10;3.50;88.80
26707;DHT22;14319;49.422;10.934;2022-11-23T03:52:11;3.40;87.90
26707;DHT22;14319;49.422;10.934;2022-11-23T03:54:12;3.40;88.00
26707;DHT22;14319;49.422;10.934;2022-11-23T03:56:13;3.30;87.20
26707;DHT22;14319;49.422;10.934;2022-11-23T03:58:18;3.20;88.10
26707;DHT22;14319;49.422;10.934;2022-11-23T04:00:19;3.20;89.70
26707;DHT22;14319;49.422;10.934;2022-11-23T04:02:20;3.30;89.50
26707;DHT22;14319;49.422;10.934;2022-11-23T04:04:34;3.20;87.80
26707;DHT22;14319;49.422;10.934;2022-11-23T04:07:07;3.20;87.80
26707;DHT22;14319;49.422;10.934;2022-11-23T04:09:14;3.20;88.70
26707;DHT22;14319;49.422;10.934;2022-11-23T04:11:49;3.30;88.50
26707;DHT22;14319;49.422;10.934;2022-11-23T04:13:50;3.40;87.70
26707;DHT22;14319;49.422;10.934;2022-11-23T04:15:52;3.40;88.40
26707;DHT22;14319;49.422;10.934;2022-11-23T04:17:53;3.50;88.20
26707;DHT22;14319;49.422;10.934;2022-11-23T04:19:53;3.70;88.00
26707;DHT22;14319;49.422;10.934;2022-11-23T04:21:57;3.50;87.20
26707;DHT22;14319;49.422;10.934;2022-11-23T04:23:59;3.50;87.60
26707;DHT22;14319;49.422;10.934;2022-11-23T04:26:01;3.60;88.30
26707;DHT22;14319;49.422;10.934;2022-11-23T04:28:03;3.60;87.80
26707;DHT22;14319;49.422;10.934;2022-11-23T04:30:04;3.60;87.60
26707;DHT22;14319;49.422;10.934;2022-11-23T04:32:05;3.70;88.40
26707;DHT22;14319;49.422;10.934;2022-11-23T04:34:05;3.80;88.90
26707;DHT22;14319;49.422;10.934;2022-11-23T04:36:07;3.90;88.20
26707;DHT22;14319;49.422;10.934;2022-11-23T04:38:08;4.00;87.50
26707;DHT22;14319;49.422;10.934;2022-11-23T04:40:10;3.90;87.80
26707;DHT22;14319;49.422;10.934;2022-11-23T04:42:15;3.90;87.30
26707;DHT22;14319;49.422;10.934;2022-11-23T04:44:22;4.10;87.60
26707;DHT22;14319;49.422;10.934;2022-11-23T04:46:26;4.10;87.40
26707;DHT22;14319;49.422;10.934;2022-11-23T04:48:27;4.20;87.70
26707;DHT22;14319;49.422;10.934;2022-11-23T04:50:29;4.10;87.90
26707;DHT22;14319;49.422;10.934;2022-11-23T04:52:30;4.10;87.40
26707;DHT22;14319;49.422;10.934;2022-11-23T04:54:31;4.00;87.30
26707;DHT22;14319;49.422;10.934;2022-11-23T04:56:35;4.10;86.70
26707;DHT22;14319;49.422;10.934;2022-11-23T04:58:35;4.20;86.20
26707;DHT22;14319;49.422;10.934;2022-11-23T05:00:36;4.20;86.70
26707;DHT22;14319;49.422;10.934;2022-11-23T05:02:39;4.20;86.90
26707;DHT22;14319;49.422;10.934;2022-11-23T05:04:53;4.30;86.90
26707;DHT22;14319;49.422;10.934;2022-11-23T05:06:56;4.40;86.60
26707;DHT22;14319;49.422;10.934;2022-11-23T05:08:59;4.50;86.70
26707;DHT22;14319;49.422;10.934;2022-11-23T05:11:14;4.20;84.30
26707;DHT22;14319;49.422;10.934;2022-11-23T05:13:16;4.00;85.50
26707;DHT22;14319;49.422;10.934;2022-11-23T05:15:17;4.00;85.80
26707;DHT22;14319;49.422;10.934;2022-11-23T05:17:19;4.00;87.00
26707;DHT22;14319;49.422;10.934;2022-11-23T05:19:21;3.90;86.30
26707;DHT22;14319;49.422;10.934;2022-11-23T05:21:22;3.70;87.50
26707;DHT22;14319;49.422;10.934;2022-11-23T05:23:23;3.80;87.50
26707;DHT22;14319;49.422;10.934;2022-11-23T05:25:26;3.90;87.10
26707;DHT22;14319;49.422;10.934;2022-11-23T05:27:34;3.90;87.00
26707;DHT22;14319;49.422;10.934;2022-11-23T05:29:35;4.10;86.90
26707;DHT22;14319;49.422;10.934;2022-11-23T05:31:38;4.20;86.50
26707;DHT22;14319;49.422;10.934;2022-11-23T05:33:38;4.10;86.90
26707;DHT22;14319;49.422;10.934;2022-11-23T05:35:42;4.00;86.70
26707;DHT22;14319;49.422;10.934;2022-11-23T05:37:43;4.20;86.40
26707;DHT22;14319;49.422;10.934;2022-11-23T05:39:45;4.20;86.20
26707;DHT22;14319;49.422;10.934;2022-11-23T05:41:47;4.30;86.50
26707;DHT22;14319;49.422;10.934;2022-11-23T05:44:00;4.30;86.40
26707;DHT22;14319;49.422;10.934;2022-11-23T05:46:03;4.40;86.00
26707;DHT22;14319;49.422;10.934;2022-11-23T05:48:06;4.50;85.90
26707;DHT22;14319;49.422;10.934;2022-11-23T05:50:33;4.50;85.60
26707;DHT22;14319;49.422;10.934;2022-11-23T05:52:54;4.60;84.60
26707;DHT22;14319;49.422;10.934;2022-11-23T05:54:54;4.60;84.80
26707;DHT22;14319;49.422;10.934;2022-11-23T05:56:55;4.60;85.20
26707;DHT22;14319;49.422;10.934;2022-11-23T05:59:02;4.60;85.50
26707;DHT22;14319;49.422;10.934;2022-11-23T06:01:06;4.60;85.40
26707;DHT22;14319;49.422;10.934;2022-11-23T06:03:09;4.60;85.70
26707;DHT22;14319;49.422;10.934;2022-11-23T06:05:10;4.60;86.50
26707;DHT22;14319;49.422;10.934;2022-11-23T06:07:19;4.60;85.40
26707;DHT22;14319;49.422;10.934;2022-11-23T06:09:33;4.60;86.10
26707;DHT22;14319;49.422;10.934;2022-11-23T06:11:39;4.70;86.70
26707;DHT22;14319;49.422;10.934;2022-11-23T06:13:47;4.70;86.70
26707;DHT22;14319;49.422;10.934;2022-11-23T06:15:48;4.70;86.80
26707;DHT22;14319;49.422;10.934;2022-11-23T06:18:01;4.70;87.50
26707;DHT22;14319;49.422;10.934;2022-11-23T06:20:10;4.60;86.50
26707;DHT22;14319;49.422;10.934;2022-11-23T06:22:16;4.70;85.50
26707;DHT22;14319;49.422;10.934;2022-11-23T06:24:25;4.70;85.80
26707;DHT22;14319;49.422;10.934;2022-11-23T06:26:45;4.70;86.30
26707;DHT22;14319;49.422;10.934;2022-11-23T06:28:46;4.70;86.40
26707;DHT22;14319;49.422;10.934;2022-11-23T06:30:48;4.70;86.30
26707;DHT22;14319;49.422;10.934;2022-11-23T06:32:51;4.80;85.50
26707;DHT22;14319;49.422;10.934;2022-11-23T06:34:53;4.80;85.30
26707;DHT22;14319;49.422;10.934;2022-11-23T06:36:54;4.80;85.60
26707;DHT22;14319;49.422;10.934;2022-11-23T06:38:57;4.80;85.90
26707;DHT22;14319;49.422;10.934;2022-11-23T06:40:59;4.80;86.10
26707;DHT22;14319;49.422;10.934;2022-11-23T06:43:01;4.70;86.70
26707;DHT22;14319;49.422;10.934;2022-11-23T06:45:11;4.50;86.00
26707;DHT22;14319;49.422;10.934;2022-11-23T06:47:12;4.10;86.50
26707;DHT22;14319;49.422;10.934;2022-11-23T06:49:12;3.60;86.70
26707;DHT22;14319;49.422;10.934;2022-11-23T06:51:15;3.70;88.70
26707;DHT22;14319;49.422;10.934;2022-11-23T06:53:17;3.70;88.10
26707;DHT22;14319;49.422;10.934;2022-11-23T06:55:22;3.70;88.50
26707;DHT22;14319;49.422;10.934;2022-11-23T06:57:23;3.80;88.90
26707;DHT22;14319;49.422;10.934;2022-11-23T06:59:23;3.80;89.00
26707;DHT22;14319;49.422;10.934;2022-11-23T07:01:24;3.90;89.20
26707;DHT22;14319;49.422;10.934;2022-11-23T07:03:29;3.90;89.20
26707;DHT22;14319;49.422;10.934;2022-11-23T07:05:37;4.00;89.30
26707;DHT22;14319;49.422;10.934;2022-11-23T07:07:38;4.10;89.10
26707;DHT22;14319;49.422;10.934;2022-11-23T07:09:45;4.10;88.50
26707;DHT22;14319;49.422;10.934;2022-11-23T07:11:55;4.20;89.40
26707;DHT22;14319;49.422;10.934;2022-11-23T07:13:56;4.40;89.00
26707;DHT22;14319;49.422;10.934;2022-11-23T07:16:00;4.40;88.30
26707;DHT22;14319;49.422;10.934;2022-11-23T07:18:01;4.50;88.70
26707;DHT22;14319;49.422;10.934;2022-11-23T07:20:02;4.50;88.60
26707;DHT22;14319;49.422;10.934;2022-11-23T07:22:02;4.60;88.30
26707;DHT22;14319;49.422;10.934;2022-11-23T07:24:03;4.70;88.40
26707;DHT22;14319;49.422;10.934;2022-11-23T07:26:04;4.80;88.40
26707;DHT22;14319;49.422;10.934;2022-11-23T07:28:05;4.80;88.10
26707;DHT22;14319;49.422;10.934;2022-11-23T07:30:06;4.90;88.80
26707;DHT22;14319;49.422;10.934;2022-11-23T07:32:07;4.90;88.30
26707;DHT22;14319;49.422;10.934;2022-11-23T07:37:05;5.10;87.40
26707;DHT22;14319;49.422;10.934;2022-11-23T07:39:08;5.10;88.00
26707;DHT22;14319;49.422;10.934;2022-11-23T07:41:09;5.20;87.70
26707;DHT22;14319;49.422;10.934;2022-11-23T07:43:33;5.20;87.40
26707;DHT22;14319;49.422;10.934;2022-11-23T07:45:35;5.30;86.80
26707;DHT22;14319;49.422;10.934;2022-11-23T07:47:39;5.30;87.20
26707;DHT22;14319;49.422;10.934;2022-11-23T07:49:39;5.30;86.40
26707;DHT22;14319;49.422;10.934;2022-11-23T07:51:42;5.40;86.20
26707;DHT22;14319;49.422;10.934;2022-11-23T07:53:43;5.40;86.40
26707;DHT22;14319;49.422;10.934;2022-11-23T07:55:44;5.40;86.40
26707;DHT22;14319;49.422;10.934;2022-11-23T07:57:44;5.50;86.40
26707;DHT22;14319;49.422;10.934;2022-11-23T07:59:45;5.50;86.30
26707;DHT22;14319;49.422;10.934;2022-11-23T08:01:45;5.50;86.30
26707;DHT22;14319;49.422;10.934;2022-11-23T08:03:46;5.50;86.10
26707;DHT22;14319;49.422;10.934;2022-11-23T08:05:47;5.60;85.80
26707;DHT22;14319;49.422;10.934;2022-11-23T08:07:48;5.60;86.00
26707;DHT22;14319;49.422;10.934;2022-11-23T08:09:48;5.60;85.80
26707;DHT22;14319;49.422;10.934;2022-11-23T08:11:49;5.60;85.80
26707;DHT22;14319;49.422;10.934;2022-11-23T08:13:50;5.60;86.30
26707;DHT22;14319;49.422;10.934;2022-11-23T08:15:50;5.60;86.90
26707;DHT22;14319;49.422;10.934;2022-11-23T08:17:57;5.60;87.30
26707;DHT22;14319;49.422;10.934;2022-11-23T08:19:58;5.70;87.40
26707;DHT22;14319;49.422;10.934;2022-11-23T08:21:59;5.70;87.10
26707;DHT22;14319;49.422;10.934;2022-11-23T08:23:59;5.80;86.80
26707;DHT22;14319;49.422;10.934;2022-11-23T08:26:01;5.80;86.70
26707;DHT22;14319;49.422;10.934;2022-11-23T08:28:02;5.90;87.50
26707;DHT22;14319;49.422;10.934;2022-11-23T08:30:03;5.90;87.00
26707;DHT22;14319;49.422;10.934;2022-11-23T08:32:04;5.90;87.00
26707;DHT22;14319;49.422;10.934;2022-11-23T08:34:04;6.00;86.70
26707;DHT22;14319;49.422;10.934;2022-11-23T08:36:05;6.00;87.10
26707;DHT22;14319;49.422;10.934;2022-11-23T08:38:07;6.00;87.00
26707;DHT22;14319;49.422;10.934;2022-11-23T08:40:08;6.00;87.10
26707;DHT22;14319;49.422;10.934;2022-11-23T08:42:09;6.10;87.30
26707;DHT22;14319;49.422;10.934;2022-11-23T08:44:09;6.10;86.90
26707;DHT22;14319;49.422;10.934;2022-11-23T08:46:12;6.10;86.60
26707;DHT22;14319;49.422;10.934;2022-11-23T08:48:12;6.20;86.60
26707;DHT22;14319;49.422;10.934;2022-11-23T08:50:13;6.20;86.50
26707;DHT22;14319;49.422;10.934;2022-11-23T08:52:13;6.20;86.40
26707;DHT22;14319;49.422;10.934;2022-11-23T08:54:14;6.20;86.70
26707;DHT22;14319;49.422;10.934;2022-11-23T08:56:14;6.30;85.70
26707;DHT22;14319;49.422;10.934;2022-11-23T08:58:15;6.30;86.20
26707;DHT22;14319;49.422;10.934;2022-11-23T09:00:16;6.40;85.50
26707;DHT22;14319;49.422;10.934;2022-11-23T09:02:17;6.40;85.20
26707;DHT22;14319;49.422;10.934;2022-11-23T09:04:17;6.50;84.50
26707;DHT22;14319;49.422;10.934;2022-11-23T09:06:18;6.50;85.30
26707;DHT22;14319;49.422;10.934;2022-11-23T09:08:19;6.60;85.00
26707;DHT22;14319;49.422;10.934;2022-11-23T09:10:20;6.60;84.30
26707;DHT22;14319;49.422;10.934;2022-11-23T09:12:20;6.60;84.10
26707;DHT22;14319;49.422;10.934;2022-11-23T09:14:21;6.70;84.70
26707;DHT22;14319;49.422;10.934;2022-11-23T09:16:22;6.70;84.90
26707;DHT22;14319;49.422;10.934;2022-11-23T09:18:23;6.70;85.10
26707;DHT22;14319;49.422;10.934;2022-11-23T09:20:24;6.70;85.10
26707;DHT22;14319;49.422;10.934;2022-11-23T09:22:24;6.80;84.80
26707;DHT22;14319;49.422;10.934;2022-11-23T09:24:25;6.80;84.50
26707;DHT22;14319;49.422;10.934;2022-11-23T09:26:27;6.80;84.00
26707;DHT22;14319;49.422;10.934;2022-11-23T09:28:28;6.80;83.80
26707;DHT22;14319;49.422;10.934;2022-11-23T09:30:28;6.90;84.10
26707;DHT22;14319;49.422;10.934;2022-11-23T09:32:30;6.90;84.30
26707;DHT22;14319;49.422;10.934;2022-11-23T09:34:31;7.00;84.40
26707;DHT22;14319;49.422;10.934;2022-11-23T09:36:32;7.00;83.70
26707;DHT22;14319;49.422;10.934;2022-11-23T09:38:32;7.10;84.20
26707;DHT22;14319;49.422;10.934;2022-11-23T09:40:35;7.20;83.80
26707;DHT22;14319;49.422;10.934;2022-11-23T09:49:37;7.40;83.30
26707;DHT22;14319;49.422;10.934;2022-11-23T09:51:41;7.50;83.40
26707;DHT22;14319;49.422;10.934;2022-11-23T09:55:46;7.40;81.90
26707;DHT22;14319;49.422;10.934;2022-11-23T09:57:47;7.50;82.40
26707;DHT22;14319;49.422;10.934;2022-11-23T09:59:53;7.50;82.70
26707;DHT22;14319;49.422;10.934;2022-11-23T10:01:56;7.50;81.90
26707;DHT22;14319;49.422;10.934;2022-11-23T10:03:58;7.50;82.00
26707;DHT22;14319;49.422;10.934;2022-11-23T10:12:59;7.40;82.10
26707;DHT22;14319;49.422;10.934;2022-11-23T10:15:13;7.50;83.10
26707;DHT22;14319;49.422;10.934;2022-11-23T10:23:43;7.80;82.30
26707;DHT22;14319;49.422;10.934;2022-11-23T10:25:46;7.90;81.70
26707;DHT22;14319;49.422;10.934;2022-11-23T10:27:49;7.90;82.00
26707;DHT22;14319;49.422;10.934;2022-11-23T10:29:49;7.90;81.00
26707;DHT22;14319;49.422;10.934;2022-11-23T10:31:51;7.90;82.10
26707;DHT22;14319;49.422;10.934;2022-11-23T10:33:54;8.00;80.60
26707;DHT22;14319;49.422;10.934;2022-11-23T10:35:55;8.00;80.90
26707;DHT22;14319;49.422;10.934;2022-11-23T10:40:26;7.80;80.10
26707;DHT22;14319;49.422;10.934;2022-11-23T10:42:40;7.80;81.00
26707;DHT22;14319;49.422;10.934;2022-11-23T10:44:42;7.80;81.10
26707;DHT22;14319;49.422;10.934;2022-11-23T10:46:46;7.80;80.40
26707;DHT22;14319;49.422;10.934;2022-11-23T10:48:47;7.70;80.20
26707;DHT22;14319;49.422;10.934;2022-11-23T10:50:47;7.70;80.30
26707;DHT22;14319;49.422;10.934;2022-11-23T10:52:49;7.80;80.10
26707;DHT22;14319;49.422;10.934;2022-11-23T10:54:52;7.80;80.40
26707;DHT22;14319;49.422;10.934;2022-11-23T10:56:53;7.80;80.60
26707;DHT22;14319;49.422;10.934;2022-11-23T10:58:54;7.90;80.70
26707;DHT22;14319;49.422;10.934;2022-11-23T11:00:58;7.90;80.80
26707;DHT22;14319;49.422;10.934;2022-11-23T11:03:00;7.90;80.90
26707;DHT22;14319;49.422;10.934;2022-11-23T11:09:42;8.00;80.50
26707;DHT22;14319;49.422;10.934;2022-11-23T11:11:47;8.20;78.80
26707;DHT22;14319;49.422;10.934;2022-11-23T11:13:59;8.20;80.80
26707;DHT22;14319;49.422;10.934;2022-11-23T11:16:02;8.30;79.20
26707;DHT22;14319;49.422;10.934;2022-11-23T11:18:03;8.30;79.50
26707;DHT22;14319;49.422;10.934;2022-11-23T11:22:24;8.40;79.20
26707;DHT22;14319;49.422;10.934;2022-11-23T11:24:46;8.30;80.20
26707;DHT22;14319;49.422;10.934;2022-11-23T11:26:49;8.30;80.80
26707;DHT22;14319;49.422;10.934;2022-11-23T11:28:51;8.20;81.20
26707;DHT22;14319;49.422;10.934;2022-11-23T11:31:09;8.10;81.90
26707;DHT22;14319;49.422;10.934;2022-11-23T11:33:13;8.10;81.40
26707;DHT22;14319;49.422;10.934;2022-11-23T11:35:33;8.10;82.40
26707;DHT22;14319;49.422;10.934;2022-11-23T11:37:40;8.00;81.50
26707;DHT22;14319;49.422;10.934;2022-11-23T11:39:46;8.00;80.30
26707;DHT22;14319;49.422;10.934;2022-11-23T11:41:48;8.00;79.70
26707;DHT22;14319;49.422;10.934;2022-11-23T11:44:00;8.00;79.20
26707;DHT22;14319;49.422;10.934;2022-11-23T11:48:21;7.90;79.10
26707;DHT22;14319;49.422;10.934;2022-11-23T11:50:23;7.90;79.20
26707;DHT22;14319;49.422;10.934;2022-11-23T11:52:27;7.90;80.10
26707;DHT22;14319;49.422;10.934;2022-11-23T11:56:49;7.90;79.40
26707;DHT22;14319;49.422;10.934;2022-11-23T11:58:54;7.90;79.70
26707;DHT22;14319;49.422;10.934;2022-11-23T12:01:06;7.90;79.10
26707;DHT22;14319;49.422;10.934;2022-11-23T12:05:29;7.90;80.20
26707;DHT22;14319;49.422;10.934;2022-11-23T12:09:37;7.80;82.20
26707;DHT22;14319;49.422;10.934;2022-11-23T12:11:38;7.90;81.80
26707;DHT22;14319;49.422;10.934;2022-11-23T12:13:39;7.90;81.90
26707;DHT22;14319;49.422;10.934;2022-11-23T12:15:43;7.90;83.00
26707;DHT22;14319;49.422;10.934;2022-11-23T12:17:50;7.90;82.10
26707;DHT22;14319;49.422;10.934;2022-11-23T12:19:58;7.90;81.80
26707;DHT22;14319;49.422;10.934;2022-11-23T12:24:33;7.90;81.90
26707;DHT22;14319;49.422;10.934;2022-11-23T12:26:45;7.90;81.20
26707;DHT22;14319;49.422;10.934;2022-11-23T12:33:22;8.00;81.20
26707;DHT22;14319;49.422;10.934;2022-11-23T12:41:38;8.10;77.30
26707;DHT22;14319;49.422;10.934;2022-11-23T12:43:49;8.10;77.40
26707;DHT22;14319;49.422;10.934;2022-11-23T12:50:13;8.20;77.00
26707;DHT22;14319;49.422;10.934;2022-11-23T12:58:48;8.30;77.50
26707;DHT22;14319;49.422;10.934;2022-11-23T13:01:00;8.30;77.50
26707;DHT22;14319;49.422;10.934;2022-11-23T13:05:09;8.30;78.10
26707;DHT22;14319;49.422;10.934;2022-11-23T13:07:24;8.30;78.50
26707;DHT22;14319;49.422;10.934;2022-11-23T13:09:33;8.30;77.90
26707;DHT22;14319;49.422;10.934;2022-11-23T13:11:45;8.40;77.40
26707;DHT22;14319;49.422;10.934;2022-11-23T13:16:05;8.30;77.20
26707;DHT22;14319;49.422;10.934;2022-11-23T13:18:25;8.30;77.50
26707;DHT22;14319;49.422;10.934;2022-11-23T13:20:36;8.30;78.70
26707;DHT22;14319;49.422;10.934;2022-11-23T13:22:40;8.30;77.30
26707;DHT22;14319;49.422;10.934;2022-11-23T13:29:44;8.30;76.70
26707;DHT22;14319;49.422;10.934;2022-11-23T13:31:45;8.30;76.20
26707;DHT22;14319;49.422;10.934;2022-11-23T13:33:46;8.30;77.50
26707;DHT22;14319;49.422;10.934;2022-11-23T13:35:48;8.20;77.30
26707;DHT22;14319;49.422;10.934;2022-11-23T13:41:58;8.20;77.90
26707;DHT22;14319;49.422;10.934;2022-11-23T13:48:15;8.20;74.80
26707;DHT22;14319;49.422;10.934;2022-11-23T13:50:17;8.20;74.80
26707;DHT22;14319;49.422;10.934;2022-11-23T13:54:22;8.10;75.30
26707;DHT22;14319;49.422;10.934;2022-11-23T13:58:36;8.20;75.70
26707;DHT22;14319;49.422;10.934;2022-11-23T14:02:44;8.20;76.60
26707;DHT22;14319;49.422;10.934;2022-11-23T14:04:45;8.20;74.80
26707;DHT22;14319;49.422;10.934;2022-11-23T14:10:59;8.10;76.30
26707;DHT22;14319;49.422;10.934;2022-11-23T14:13:07;8.00;77.20
26707;DHT22;14319;49.422;10.934;2022-11-23T14:19:20;8.00;76.80
26707;DHT22;14319;49.422;10.934;2022-11-23T14:23:45;7.90;77.50
26707;DHT22;14319;49.422;10.934;2022-11-23T14:30:05;7.80;76.30
26707;DHT22;14319;49.422;10.934;2022-11-23T14:34:15;7.80;77.70
26707;DHT22;14319;49.422;10.934;2022-11-23T14:36:26;7.80;78.20
26707;DHT22;14319;49.422;10.934;2022-11-23T14:38:33;7.80;78.20
26707;DHT22;14319;49.422;10.934;2022-11-23T14:40:46;7.80;76.90
26707;DHT22;14319;49.422;10.934;2022-11-23T14:42:53;7.80;77.00
26707;DHT22;14319;49.422;10.934;2022-11-23T14:44:55;7.80;76.60
26707;DHT22;14319;49.422;10.934;2022-11-23T14:47:04;7.70;76.90
26707;DHT22;14319;49.422;10.934;2022-11-23T14:49:05;7.70;76.40